Time;durP1;ratioP1;P1;durP2;ratioP2;P2;SDS_P1;SDS_P2;PMS_P1;PMS_P2;Temp;Humidity;BMP_temperature;BMP_pressure;BME280_temperature;BME280_humidity;BME280_pressure;Samples;Min_cycle;Max_cycle;Signal;HPM_P1;HPM_P2
2023/06/06 00:04:13;;;;;;;2.50;1.60;;;;;;;;;;10318030;28;20084;-62
2023/06/06 00:09:12;;;;;;;4.18;1.40;;;;;;;;;;10317183;28;20068;-61
2023/06/06 00:14:12;;;;;;;3.53;1.33;;;;;;;;;;10314328;28;20079;-62
2023/06/06 00:19:13;;;;;;;3.17;1.50;;;;;;;;;;10316192;28;20075;-62
2023/06/06 00:24:11;;;;;;;1.70;1.58;;;;;;;;;;10315784;28;20114;-63
2023/06/06 00:29:10;;;;;;;4.32;2.00;;;;;;;;;;10315603;28;20086;-62
2023/06/06 00:34:08;;;;;;;3.15;1.77;;;;;;;;;;10317679;28;20075;-62
2023/06/06 00:39:07;;;;;;;2.17;1.55;;;;;;;;;;10316447;28;20076;-62
2023/06/06 00:44:06;;;;;;;3.45;1.38;;;;;;;;;;10316841;28;20068;-62
2023/06/06 00:49:04;;;;;;;2.72;1.48;;;;;;;;;;10317188;28;20068;-63
2023/06/06 00:54:02;;;;;;;1.50;1.40;;;;;;;;;;10316928;28;20079;-62
2023/06/06 00:59:03;;;;;;;3.53;1.30;;;;;;;;;;10308465;28;20083;-61
2023/06/06 01:04:02;;;;;;;3.58;1.30;;;;;;;;;;10317021;28;20080;-63
2023/06/06 01:09:01;;;;;;;2.92;1.63;;;;;;;;;;10313591;28;20473;-63
2023/06/06 01:14:05;;;;;;;2.67;2.28;;;;;;;;;;10312113;28;20048;-65
2023/06/06 01:19:05;;;;;;;2.42;1.55;;;;;;;;;;10316332;28;20079;-62
2023/06/06 01:24:05;;;;;;;6.60;2.17;;;;;;;;;;10315763;28;20072;-61
2023/06/06 01:29:03;;;;;;;2.03;1.73;;;;;;;;;;10308457;28;20076;-62
2023/06/06 01:34:07;;;;;;;4.22;1.92;;;;;;;;;;10314507;28;20067;-63
2023/06/06 01:39:09;;;;;;;3.92;2.20;;;;;;;;;;10314088;28;20083;-62
2023/06/06 01:44:08;;;;;;;3.03;1.75;;;;;;;;;;10303415;28;20052;-62
2023/06/06 01:49:07;;;;;;;2.90;2.00;;;;;;;;;;10314348;28;20064;-62
2023/06/06 01:54:06;;;;;;;4.10;2.17;;;;;;;;;;10313970;28;20064;-62
2023/06/06 01:59:07;;;;;;;3.10;1.50;;;;;;;;;;10312631;28;20083;-62
2023/06/06 02:04:06;;;;;;;3.17;2.05;;;;;;;;;;10313169;28;20461;-62
2023/06/06 02:09:04;;;;;;;4.40;2.00;;;;;;;;;;10313074;28;20041;-61
2023/06/06 02:14:08;;;;;;;3.03;1.85;;;;;;;;;;10313245;28;20095;-61
2023/06/06 02:19:18;;;;;;;2.00;1.80;;;;;;;;;;10312041;28;20079;-61
2023/06/06 02:24:17;;;;;;;4.53;2.25;;;;;;;;;;10312219;28;20072;-62
2023/06/06 02:29:15;;;;;;;6.32;2.53;;;;;;;;;;10312036;28;20127;-61
2023/06/06 02:34:13;;;;;;;5.75;1.80;;;;;;;;;;10311635;28;20083;-62
2023/06/06 02:39:13;;;;;;;7.18;2.10;;;;;;;;;;10309711;28;20092;-63
2023/06/06 02:44:12;;;;;;;4.93;2.42;;;;;;;;;;10305623;28;20425;-62
2023/06/06 02:49:10;;;;;;;3.97;2.08;;;;;;;;;;10311183;28;20521;-62
2023/06/06 02:54:09;;;;;;;3.97;2.03;;;;;;;;;;10309786;28;20080;-62
2023/06/06 02:59:09;;;;;;;4.28;2.50;;;;;;;;;;10311997;28;20076;-62
2023/06/06 03:04:07;;;;;;;10.73;2.67;;;;;;;;;;10314024;28;20723;-63
2023/06/06 03:09:05;;;;;;;4.75;2.20;;;;;;;;;;10312055;28;20068;-63
2023/06/06 03:14:04;;;;;;;5.07;2.03;;;;;;;;;;10312160;28;20059;-63
2023/06/06 03:19:07;;;;;;;3.40;2.20;;;;;;;;;;10310308;28;20496;-62
2023/06/06 03:24:06;;;;;;;3.33;1.73;;;;;;;;;;10311006;28;20055;-60
2023/06/06 03:29:05;;;;;;;5.68;2.47;;;;;;;;;;10311500;28;20506;-61
2023/06/06 03:34:05;;;;;;;7.97;2.20;;;;;;;;;;10308959;28;20049;-62
2023/06/06 03:39:07;;;;;;;4.53;2.33;;;;;;;;;;10307037;28;20091;-61
2023/06/06 03:44:05;;;;;;;17.00;3.20;;;;;;;;;;10302491;28;20722;-62
2023/06/06 03:49:04;;;;;;;10.98;2.58;;;;;;;;;;10310605;28;20072;-63
2023/06/06 03:54:02;;;;;;;5.43;2.40;;;;;;;;;;10312316;28;20072;-63
2023/06/06 03:59:02;;;;;;;5.53;2.53;;;;;;;;;;10313563;28;20079;-64
2023/06/06 04:04:01;;;;;;;5.63;2.33;;;;;;;;;;10306276;28;20056;-62
2023/06/06 04:08:59;;;;;;;5.80;2.60;;;;;;;;;;10317894;28;20079;-61
2023/06/06 04:13:57;;;;;;;6.00;2.97;;;;;;;;;;10319808;28;20068;-62
2023/06/06 04:18:57;;;;;;;4.43;2.10;;;;;;;;;;10317072;28;20087;-62
2023/06/06 04:23:55;;;;;;;6.70;2.40;;;;;;;;;;10317378;28;20044;-62
2023/06/06 04:28:58;;;;;;;6.70;2.25;;;;;;;;;;10317621;28;20505;-62
2023/06/06 04:34:03;;;;;;;10.25;2.85;;;;;;;;;;10315812;28;20087;-62
2023/06/06 04:39:03;;;;;;;7.40;2.47;;;;;;;;;;10311264;28;20076;-63
2023/06/06 04:44:02;;;;;;;6.35;2.65;;;;;;;;;;10316095;28;20076;-62
2023/06/06 04:49:02;;;;;;;5.18;2.50;;;;;;;;;;10314121;28;20338;-61
2023/06/06 04:54:01;;;;;;;8.32;2.85;;;;;;;;;;10299412;28;20474;-62
2023/06/06 04:59:05;;;;;;;13.43;3.25;;;;;;;;;;10308647;28;20076;-62
2023/06/06 05:04:06;;;;;;;10.30;3.20;;;;;;;;;;10307657;28;20083;-62
2023/06/06 05:09:06;;;;;;;8.77;2.97;;;;;;;;;;10305176;28;20533;-62
2023/06/06 05:14:04;;;;;;;6.03;2.40;;;;;;;;;;10315112;28;20060;-62
2023/06/06 05:19:03;;;;;;;8.75;2.80;;;;;;;;;;10312529;28;20668;-62
2023/06/06 05:24:03;;;;;;;5.72;2.92;;;;;;;;;;10307752;28;20076;-62
2023/06/06 05:29:01;;;;;;;10.38;2.80;;;;;;;;;;10301814;28;20064;-62
2023/06/06 05:33:59;;;;;;;6.80;2.42;;;;;;;;;;10300745;28;20079;-62
2023/06/06 05:38:58;;;;;;;9.07;2.10;;;;;;;;;;10313202;28;20072;-62
2023/06/06 05:44:00;;;;;;;2.67;2.10;;;;;;;;;;10309201;28;20108;-62
2023/06/06 05:48:58;;;;;;;4.20;2.60;;;;;;;;;;10303604;28;20075;-62
2023/06/06 05:53:57;;;;;;;2.75;2.33;;;;;;;;;;10303993;28;20087;-62
2023/06/06 05:59:14;;;;;;;5.22;2.50;;;;;;;;;;10298521;28;20076;-62
2023/06/06 06:04:12;;;;;;;7.43;2.90;;;;;;;;;;10310331;28;20088;-63
2023/06/06 06:09:11;;;;;;;7.93;2.80;;;;;;;;;;10311964;28;20064;-62
2023/06/06 06:14:09;;;;;;;3.40;1.92;;;;;;;;;;10308427;28;20079;-62
2023/06/06 06:19:08;;;;;;;14.25;9.35;;;;;;;;;;10310828;28;20504;-62
2023/06/06 06:24:07;;;;;;;6.72;3.10;;;;;;;;;;10312661;28;20075;-62
2023/06/06 06:29:06;;;;;;;5.38;2.95;;;;;;;;;;10313013;28;20525;-62
2023/06/06 06:34:04;;;;;;;6.60;4.95;;;;;;;;;;10311540;28;20470;-62
2023/06/06 06:39:04;;;;;;;4.88;2.20;;;;;;;;;;10301626;28;20084;-63
2023/06/06 06:44:02;;;;;;;12.30;3.17;;;;;;;;;;10311184;28;20078;-62
2023/06/06 06:49:00;;;;;;;11.65;3.45;;;;;;;;;;10313537;28;20071;-63
2023/06/06 06:53:58;;;;;;;8.43;3.42;;;;;;;;;;10313923;28;20064;-62
2023/06/06 06:59:01;;;;;;;6.65;2.58;;;;;;;;;;10312682;28;20045;-62
2023/06/06 07:04:00;;;;;;;6.70;2.45;;;;;;;;;;10313797;28;20079;-62
2023/06/06 07:08:58;;;;;;;5.03;1.90;;;;;;;;;;10311219;28;20071;-61
2023/06/06 07:13:59;;;;;;;5.22;2.20;;;;;;;;;;10311883;28;20079;-61
2023/06/06 07:18:58;;;;;;;5.55;2.53;;;;;;;;;;10310663;28;20102;-61
2023/06/06 07:23:56;;;;;;;3.55;2.13;;;;;;;;;;10312097;28;20068;-62
2023/06/06 07:28:54;;;;;;;9.13;2.00;;;;;;;;;;10313524;28;20080;-62
2023/06/06 07:33:55;;;;;;;8.40;2.38;;;;;;;;;;10313771;28;20076;-62
2023/06/06 07:38:53;;;;;;;11.50;2.38;;;;;;;;;;10318544;28;20076;-61
2023/06/06 07:43:52;;;;;;;9.20;2.78;;;;;;;;;;10320398;28;20585;-62
2023/06/06 07:48:50;;;;;;;3.92;2.20;;;;;;;;;;10320041;28;20083;-61
2023/06/06 07:53:49;;;;;;;3.08;2.75;;;;;;;;;;10320246;28;20080;-62
2023/06/06 07:58:52;;;;;;;4.30;2.03;;;;;;;;;;10317625;28;20071;-62
2023/06/06 08:03:50;;;;;;;4.13;2.20;;;;;;;;;;10310589;28;20114;-61
2023/06/06 08:08:54;;;;;;;6.88;2.15;;;;;;;;;;10319266;28;20040;-62
2023/06/06 08:13:53;;;;;;;2.67;2.00;;;;;;;;;;10315472;28;20060;-62
2023/06/06 08:18:58;;;;;;;4.38;2.33;;;;;;;;;;10316617;28;20450;-62
2023/06/06 08:24:22;;;;;;;3.60;2.58;;;;;;;;;;10317110;28;20087;-63
2023/06/06 08:29:40;;;;;;;4.07;2.67;;;;;;;;;;10314427;28;20080;-63
2023/06/06 08:34:38;;;;;;;5.57;2.60;;;;;;;;;;10317485;28;20076;-62
2023/06/06 08:39:38;;;;;;;3.97;2.30;;;;;;;;;;10319129;28;20068;-61
2023/06/06 08:44:37;;;;;;;7.45;3.40;;;;;;;;;;10316648;28;20083;-61
2023/06/06 08:49:37;;;;;;;3.30;2.10;;;;;;;;;;10315568;28;20087;-60
2023/06/06 08:54:36;;;;;;;5.25;2.60;;;;;;;;;;10315430;28;20040;-62
2023/06/06 08:59:37;;;;;;;4.18;2.38;;;;;;;;;;10318041;28;20478;-62
2023/06/06 09:04:35;;;;;;;6.97;2.97;;;;;;;;;;10317415;28;20071;-62
2023/06/06 09:09:34;;;;;;;7.25;2.35;;;;;;;;;;10317675;28;20075;-62
2023/06/06 09:14:32;;;;;;;6.80;2.78;;;;;;;;;;10315896;28;20075;-62
2023/06/06 09:19:32;;;;;;;6.68;2.63;;;;;;;;;;10315586;28;20087;-62
2023/06/06 09:24:31;;;;;;;4.68;3.00;;;;;;;;;;10316652;28;20071;-61
2023/06/06 09:29:29;;;;;;;2.63;2.15;;;;;;;;;;10316119;28;20122;-62
2023/06/06 09:34:27;;;;;;;6.15;2.35;;;;;;;;;;10316555;28;20080;-62
2023/06/06 09:39:27;;;;;;;5.78;2.17;;;;;;;;;;10315536;28;20068;-62
2023/06/06 09:44:28;;;;;;;18.45;3.00;;;;;;;;;;10314368;28;20071;-62
2023/06/06 09:49:26;;;;;;;12.50;2.95;;;;;;;;;;10315888;28;20060;-62
2023/06/06 09:54:24;;;;;;;4.15;2.50;;;;;;;;;;10315919;28;20121;-63
2023/06/06 09:59:25;;;;;;;4.88;2.75;;;;;;;;;;10313604;28;20068;-62
2023/06/06 10:04:25;;;;;;;6.20;2.50;;;;;;;;;;10314493;28;20139;-62
2023/06/06 10:09:26;;;;;;;5.75;2.80;;;;;;;;;;10315161;28;20079;-62
2023/06/06 10:14:26;;;;;;;5.53;2.90;;;;;;;;;;10312651;28;20548;-62
2023/06/06 10:19:25;;;;;;;11.15;2.72;;;;;;;;;;10312885;28;20068;-63
2023/06/06 10:24:23;;;;;;;3.90;2.75;;;;;;;;;;10301901;28;20087;-62
2023/06/06 10:29:25;;;;;;;6.20;2.78;;;;;;;;;;10313763;28;20108;-63
2023/06/06 10:34:26;;;;;;;4.50;2.17;;;;;;;;;;10313734;28;20068;-63
2023/06/06 10:39:25;;;;;;;10.43;2.85;;;;;;;;;;10314603;28;20473;-62
2023/06/06 10:44:27;;;;;;;4.35;2.63;;;;;;;;;;10311825;28;20063;-62
2023/06/06 10:49:28;;;;;;;9.45;2.70;;;;;;;;;;10312599;28;20071;-62
2023/06/06 10:54:28;;;;;;;6.13;2.40;;;;;;;;;;10312245;28;20092;-62
2023/06/06 10:59:27;;;;;;;4.28;2.65;;;;;;;;;;10312385;28;20072;-62
2023/06/06 11:04:29;;;;;;;3.28;2.45;;;;;;;;;;10312903;28;20083;-62
2023/06/06 11:09:29;;;;;;;3.63;3.03;;;;;;;;;;10318536;28;20083;-62
2023/06/06 11:14:28;;;;;;;5.03;2.83;;;;;;;;;;10320085;28;20057;-62
2023/06/06 11:19:33;;;;;;;4.00;3.08;;;;;;;;;;10320151;28;20425;-61
2023/06/06 11:24:32;;;;;;;7.13;2.60;;;;;;;;;;10321632;28;20083;-61
2023/06/06 11:29:32;;;;;;;2.90;2.50;;;;;;;;;;10321699;28;20076;-61
2023/06/06 11:34:35;;;;;;;6.07;2.83;;;;;;;;;;10319796;28;20064;-61
2023/06/06 11:39:33;;;;;;;;;;;;;;;;;;10320560;28;20072;-62
2023/06/06 11:44:33;;;;;;;4.03;2.67;;;;;;;;;;10320981;28;19966;-62
2023/06/06 11:49:43;;;;;;;21.60;19.35;;;;;;;;;;10319960;28;20068;-62
2023/06/06 11:54:50;;;;;;;3.58;2.88;;;;;;;;;;10319971;28;20473;-62
2023/06/06 11:59:55;;;;;;;5.82;3.40;;;;;;;;;;10319060;28;20083;-61
2023/06/06 12:04:54;;;;;;;3.33;2.70;;;;;;;;;;10317826;28;20083;-62
2023/06/06 12:09:58;;;;;;;2.80;2.60;;;;;;;;;;10318941;28;20087;-62
2023/06/06 12:14:56;;;;;;;;;;;;;;;;;;10317299;28;20068;-61
2023/06/06 12:19:56;;;;;;;2.80;2.17;;;;;;;;;;10316744;28;19964;-62
2023/06/06 12:24:56;;;;;;;9.07;2.85;;;;;;;;;;10317631;28;20063;-61
2023/06/06 12:29:55;;;;;;;16.65;4.07;;;;;;;;;;10315945;28;20079;-62
2023/06/06 12:34:59;;;;;;;4.30;3.15;;;;;;;;;;10319089;28;20465;-62
2023/06/06 12:39:59;;;;;;;6.75;2.60;;;;;;;;;;10319251;28;20064;-61
2023/06/06 12:44:57;;;;;;;9.20;3.15;;;;;;;;;;10317619;28;20072;-62
2023/06/06 12:49:56;;;;;;;18.73;4.22;;;;;;;;;;10318707;28;20455;-62
2023/06/06 12:54:54;;;;;;;6.18;3.60;;;;;;;;;;10318637;28;20574;-62
2023/06/06 12:59:53;;;;;;;11.60;10.45;;;;;;;;;;10315114;28;20095;-62
2023/06/06 13:04:52;;;;;;;3.42;2.65;;;;;;;;;;10316814;28;20087;-62
2023/06/06 13:09:50;;;;;;;4.32;2.25;;;;;;;;;;10317845;28;20063;-63
2023/06/06 13:14:50;;;;;;;3.55;2.70;;;;;;;;;;10317288;28;20080;-63
2023/06/06 13:19:50;;;;;;;8.35;3.58;;;;;;;;;;10315674;28;20091;-62
2023/06/06 13:24:49;;;;;;;6.95;3.25;;;;;;;;;;10317244;28;20082;-63
2023/06/06 13:29:47;;;;;;;6.22;2.47;;;;;;;;;;10316830;28;20072;-63
2023/06/06 13:34:45;;;;;;;3.70;2.47;;;;;;;;;;10315662;28;20071;-63
2023/06/06 13:39:45;;;;;;;5.07;3.15;;;;;;;;;;10316873;28;20076;-63
2023/06/06 13:44:43;;;;;;;4.65;2.92;;;;;;;;;;10315016;28;20498;-63
2023/06/06 13:49:41;;;;;;;6.78;2.88;;;;;;;;;;10313014;28;20470;-62
2023/06/06 13:54:40;;;;;;;5.68;2.55;;;;;;;;;;10315850;28;20072;-63
2023/06/06 13:59:39;;;;;;;2.90;2.30;;;;;;;;;;10315724;28;20078;-63
2023/06/06 14:04:39;;;;;;;4.25;3.15;;;;;;;;;;10314505;28;20087;-63
2023/06/06 14:09:37;;;;;;;6.68;3.92;;;;;;;;;;10312988;28;20084;-63
2023/06/06 14:14:36;;;;;;;3.97;2.50;;;;;;;;;;10313260;28;20068;-63
2023/06/06 14:19:37;;;;;;;3.35;2.83;;;;;;;;;;10315182;28;20071;-63
2023/06/06 14:24:35;;;;;;;7.72;2.97;;;;;;;;;;10313388;28;20076;-62
2023/06/06 14:29:33;;;;;;;29.23;25.73;;;;;;;;;;10314730;28;20060;-63
2023/06/06 14:34:32;;;;;;;9.25;3.50;;;;;;;;;;10312957;28;20084;-63
2023/06/06 14:39:31;;;;;;;7.68;3.30;;;;;;;;;;10312342;28;20072;-63
2023/06/06 14:44:35;;;;;;;5.25;3.53;;;;;;;;;;10292609;28;20131;-61
2023/06/06 14:49:35;;;;;;;9.25;2.65;;;;;;;;;;10304070;28;20076;-62
2023/06/06 14:54:35;;;;;;;8.40;2.42;;;;;;;;;;10305121;28;20076;-62
2023/06/06 14:59:33;;;;;;;4.93;2.20;;;;;;;;;;10297575;28;20052;-62
2023/06/06 15:04:34;;;;;;;4.53;2.88;;;;;;;;;;10294877;28;20184;-61
2023/06/06 15:09:33;;;;;;;4.85;3.53;;;;;;;;;;10304218;28;20072;-62
2023/06/06 15:14:32;;;;;;;3.20;2.90;;;;;;;;;;10301006;28;20064;-62
2023/06/06 15:19:31;;;;;;;7.35;3.13;;;;;;;;;;10301260;28;20068;-62
2023/06/06 15:24:29;;;;;;;8.60;3.20;;;;;;;;;;10305313;28;20088;-61
2023/06/06 15:29:28;;;;;;;9.00;3.92;;;;;;;;;;10302286;28;20083;-61
2023/06/06 15:34:27;;;;;;;7.28;2.88;;;;;;;;;;10303548;28;20080;-61
2023/06/06 15:39:26;;;;;;;6.85;4.15;;;;;;;;;;10309045;28;20162;-62
2023/06/06 15:44:24;;;;;;;4.47;2.70;;;;;;;;;;10305454;28;20076;-61
2023/06/06 15:49:22;;;;;;;8.80;3.88;;;;;;;;;;10309545;28;20037;-63
2023/06/06 15:54:22;;;;;;;8.38;3.28;;;;;;;;;;10302659;28;20064;-61
2023/06/06 15:59:20;;;;;;;6.95;3.67;;;;;;;;;;10315864;28;20080;-62
2023/06/06 16:04:22;;;;;;;7.53;5.32;;;;;;;;;;10314169;28;20506;-61
2023/06/06 16:09:22;;;;;;;9.00;4.15;;;;;;;;;;10315240;28;20075;-63
2023/06/06 16:14:20;;;;;;;7.32;3.10;;;;;;;;;;10309621;28;20552;-63
2023/06/06 16:19:18;;;;;;;5.43;3.08;;;;;;;;;;10310629;28;20064;-63
2023/06/06 16:24:17;;;;;;;6.63;4.00;;;;;;;;;;10300560;28;20149;-63
2023/06/06 16:29:17;;;;;;;6.50;3.25;;;;;;;;;;10312738;28;20060;-62
2023/06/06 16:34:15;;;;;;;6.20;4.60;;;;;;;;;;10310822;28;20060;-63
2023/06/06 16:39:13;;;;;;;7.00;4.05;;;;;;;;;;10308494;28;20068;-64
2023/06/06 16:44:12;;;;;;;32.33;5.50;;;;;;;;;;10309185;28;20086;-62
2023/06/06 16:49:12;;;;;;;18.25;4.22;;;;;;;;;;10305020;28;20505;-62
2023/06/06 16:54:11;;;;;;;4.80;3.00;;;;;;;;;;10299794;28;20079;-63
2023/06/06 16:59:12;;;;;;;9.93;3.92;;;;;;;;;;10304533;28;20793;-63
2023/06/06 17:04:14;;;;;;;9.30;3.17;;;;;;;;;;10308060;28;20099;-63
2023/06/06 17:09:13;;;;;;;10.55;2.97;;;;;;;;;;10307847;28;20076;-63
2023/06/06 17:14:11;;;;;;;8.05;4.93;;;;;;;;;;10306955;28;20080;-63
2023/06/06 17:19:10;;;;;;;15.13;3.45;;;;;;;;;;10312409;28;20107;-63
2023/06/06 17:24:09;;;;;;;12.50;4.03;;;;;;;;;;10308232;28;20068;-63
2023/06/06 17:29:08;;;;;;;5.88;3.63;;;;;;;;;;10301845;28;20553;-62
2023/06/06 17:34:06;;;;;;;7.13;3.30;;;;;;;;;;10301647;28;20072;-63
2023/06/06 17:39:05;;;;;;;7.25;3.40;;;;;;;;;;10304338;28;20449;-62
2023/06/06 17:44:05;;;;;;;5.93;3.55;;;;;;;;;;10303234;28;20080;-63
2023/06/06 17:49:03;;;;;;;9.57;2.95;;;;;;;;;;10300441;28;20083;-63
2023/06/06 17:54:03;;;;;;;6.18;3.58;;;;;;;;;;10314278;28;20065;-62
2023/06/06 17:59:01;;;;;;;6.03;3.05;;;;;;;;;;10299919;28;20076;-63
2023/06/06 18:04:04;;;;;;;8.35;3.38;;;;;;;;;;10298285;28;20068;-62
2023/06/06 18:09:03;;;;;;;5.75;2.40;;;;;;;;;;10302837;28;20071;-61
2023/06/06 18:14:03;;;;;;;6.88;3.00;;;;;;;;;;10303085;28;20076;-62
2023/06/06 18:19:03;;;;;;;3.75;2.63;;;;;;;;;;10303615;28;20055;-63
2023/06/06 18:24:04;;;;;;;5.82;2.15;;;;;;;;;;10306869;28;20090;-63
2023/06/06 18:29:05;;;;;;;6.32;2.50;;;;;;;;;;10306309;28;20686;-64
2023/06/06 18:34:09;;;;;;;5.70;2.63;;;;;;;;;;10296437;28;20221;-63
2023/06/06 18:39:09;;;;;;;5.85;3.05;;;;;;;;;;10302101;28;20527;-62
2023/06/06 18:44:07;;;;;;;5.15;3.13;;;;;;;;;;10298775;28;20497;-63
2023/06/06 18:49:11;;;;;;;4.55;2.42;;;;;;;;;;10301839;28;20075;-62
2023/06/06 18:54:09;;;;;;;7.03;2.90;;;;;;;;;;10300303;28;20482;-63
2023/06/06 18:59:08;;;;;;;8.20;3.05;;;;;;;;;;10307495;28;20080;-63
2023/06/06 19:04:06;;;;;;;7.70;2.70;;;;;;;;;;10306081;28;21944;-63
2023/06/06 19:09:06;;;;;;;5.75;2.42;;;;;;;;;;10299633;28;20662;-63
2023/06/06 19:14:04;;;;;;;3.50;2.20;;;;;;;;;;10291935;28;20136;-63
2023/06/06 19:19:02;;;;;;;3.17;2.45;;;;;;;;;;10299889;28;20072;-62
2023/06/06 19:24:01;;;;;;;7.18;2.88;;;;;;;;;;10305375;28;20076;-63
2023/06/06 19:29:00;;;;;;;3.95;2.40;;;;;;;;;;10310005;28;20064;-62
2023/06/06 19:33:59;;;;;;;2.85;2.42;;;;;;;;;;10310350;28;20533;-62
2023/06/06 19:38:57;;;;;;;7.85;2.80;;;;;;;;;;10309089;28;20502;-62
2023/06/06 19:43:56;;;;;;;7.65;3.00;;;;;;;;;;10312976;28;20056;-62
2023/06/06 19:48:55;;;;;;;6.93;2.78;;;;;;;;;;10309528;28;20514;-62
2023/06/06 19:53:53;;;;;;;2.90;2.40;;;;;;;;;;10314374;28;20067;-62
2023/06/06 19:58:52;;;;;;;4.40;2.72;;;;;;;;;;10315738;28;20083;-63
2023/06/06 20:03:50;;;;;;;5.07;2.60;;;;;;;;;;10315162;28;20087;-62
2023/06/06 20:08:50;;;;;;;7.00;2.78;;;;;;;;;;10314078;28;20068;-62
2023/06/06 20:13:48;;;;;;;4.80;2.90;;;;;;;;;;10314302;28;20068;-62
2023/06/06 20:18:46;;;;;;;6.97;3.75;;;;;;;;;;10313948;28;20061;-62
2023/06/06 20:23:44;;;;;;;6.03;3.22;;;;;;;;;;10314764;28;20083;-63
2023/06/06 20:28:44;;;;;;;3.35;2.95;;;;;;;;;;10314333;28;20076;-61
2023/06/06 20:33:42;;;;;;;3.30;3.00;;;;;;;;;;10315200;28;20072;-63
2023/06/06 20:38:46;;;;;;;3.58;3.00;;;;;;;;;;10316495;28;20072;-63
2023/06/06 20:43:45;;;;;;;7.10;2.92;;;;;;;;;;10303641;28;20075;-62
2023/06/06 20:48:44;;;;;;;7.28;2.90;;;;;;;;;;10311612;28;20086;-63
2023/06/06 20:53:42;;;;;;;5.53;3.30;;;;;;;;;;10311228;28;20071;-61
2023/06/06 20:58:40;;;;;;;5.72;2.50;;;;;;;;;;10312833;28;20079;-62
2023/06/06 21:03:40;;;;;;;5.75;2.92;;;;;;;;;;10314687;28;20096;-62
2023/06/06 21:08:38;;;;;;;6.25;3.13;;;;;;;;;;10317806;28;20068;-62
2023/06/06 21:13:36;;;;;;;5.65;3.05;;;;;;;;;;10314857;28;20067;-61
2023/06/06 21:18:35;;;;;;;6.10;3.25;;;;;;;;;;10309017;28;20455;-62
2023/06/06 21:23:34;;;;;;;7.32;3.10;;;;;;;;;;10313591;28;20075;-63
2023/06/06 21:28:33;;;;;;;4.63;2.90;;;;;;;;;;10314030;28;20466;-63
2023/06/06 21:33:32;;;;;;;3.72;3.33;;;;;;;;;;10313566;28;20060;-62
2023/06/06 21:38:30;;;;;;;5.18;3.10;;;;;;;;;;10315185;28;20063;-62
2023/06/06 21:43:29;;;;;;;4.13;3.30;;;;;;;;;;10313134;28;20072;-62
2023/06/06 21:48:28;;;;;;;6.00;3.58;;;;;;;;;;10311130;28;20072;-63
2023/06/06 21:53:26;;;;;;;3.65;2.97;;;;;;;;;;10309789;28;20548;-62
2023/06/06 21:58:24;;;;;;;5.90;3.10;;;;;;;;;;10314466;28;20541;-62
2023/06/06 22:03:24;;;;;;;7.15;3.45;;;;;;;;;;10314329;28;20088;-62
2023/06/06 22:08:22;;;;;;;5.82;3.85;;;;;;;;;;10312711;28;20095;-63
2023/06/06 22:13:21;;;;;;;8.55;3.85;;;;;;;;;;10310240;28;20512;-62
2023/06/06 22:18:20;;;;;;;6.28;2.85;;;;;;;;;;10311651;28;20067;-62
2023/06/06 22:23:20;;;;;;;7.28;3.78;;;;;;;;;;10312545;28;20071;-62
2023/06/06 22:28:18;;;;;;;8.07;3.75;;;;;;;;;;10309831;28;20079;-62
2023/06/06 22:33:16;;;;;;;6.10;3.50;;;;;;;;;;10312125;28;20079;-62
2023/06/06 22:38:15;;;;;;;9.15;3.50;;;;;;;;;;10311917;28;20536;-62
2023/06/06 22:43:14;;;;;;;6.65;3.30;;;;;;;;;;10311743;28;20596;-61
2023/06/06 22:48:12;;;;;;;4.80;3.30;;;;;;;;;;10310020;28;20068;-62
2023/06/06 22:53:11;;;;;;;9.65;3.50;;;;;;;;;;10310431;28;20083;-62
2023/06/06 22:58:09;;;;;;;9.10;3.78;;;;;;;;;;10311254;28;20178;-62
2023/06/06 23:03:09;;;;;;;5.13;3.67;;;;;;;;;;10311170;28;20084;-62
2023/06/06 23:08:07;;;;;;;10.65;4.38;;;;;;;;;;10313812;28;20075;-63
2023/06/06 23:13:05;;;;;;;6.40;4.05;;;;;;;;;;10311376;28;20533;-61
2023/06/06 23:18:04;;;;;;;7.53;3.78;;;;;;;;;;10313242;28;20079;-62
2023/06/06 23:23:03;;;;;;;4.85;3.88;;;;;;;;;;10313957;28;20177;-62
2023/06/06 23:28:02;;;;;;;6.20;3.85;;;;;;;;;;10313123;28;20110;-62
2023/06/06 23:33:00;;;;;;;7.20;4.25;;;;;;;;;;10313646;28;20072;-62
2023/06/06 23:37:58;;;;;;;4.88;3.65;;;;;;;;;;10312838;28;20064;-62
2023/06/06 23:42:58;;;;;;;7.25;3.92;;;;;;;;;;10312953;28;20573;-62
2023/06/06 23:47:56;;;;;;;5.70;4.25;;;;;;;;;;10312696;28;20072;-62
2023/06/06 23:52:54;;;;;;;7.00;5.25;;;;;;;;;;10310795;28;20091;-62
2023/06/06 23:57:53;;;;;;;4.72;4.30;;;;;;;;;;10307679;28;20076;-62
